KCDW Airport (Essex County) Information

FAA: CDW - ICAO: KCDW

KCDW Airport Location

State New Jersey
County Essex
City Caldwell
KCDW Airport is 2 miles north of Caldwell, NJ.
Latitude 40-52-30.8000N
Longitude 074-16-52.9000W
Elevation 172ft

KCDW Airport METARs

METAR KCDW 180753Z AUTO 20003KT 10SM CLR 09/05 A2986 RMK AO2 SLP115 T00890050
Altimeter 29.86"
Temperature 8.9°C (48.0°F)
Wind 200° at 3KT
Clouds Skies are clear.
Visibility 10.0mi
Time observed: 2021-10-18T07:53:00Z

KCDW Airport Details

Status Operational
Activation February 1938
Ownership Public
Usage Public
Chart NEW YORK
ATC on-site Yes
Beacon schedule sunset-sunrise
Beacon color clear green

KCDW Airport Contacts

Owner ESSEX COUNTY IMPROVEMENT AUTHORITY
Owner address 27 WRIGHT WAY, FAIRFIELD, NJ 07004
Owner phone 973-575-0952
Manager KEVIN DUNN
Manager address 1 TURNPIKE PLAZA, WOODBRIDGE, NJ 07095
Manager phone (732) 750-5300

KCDW Airport (Essex County) Radio Frequencies

KCDW (Airport) Radio Frequencies

UNICOM 122.95
Common traffic advisory frequency (CTAF) 119.8